Time;durP1;ratioP1;P1;durP2;ratioP2;P2;SDS_P1;SDS_P2;PMS_P1;PMS_P2;Temp;Humidity;BMP_temperature;BMP_pressure;BME280_temperature;BME280_humidity;BME280_pressure;Samples;Min_cycle;Max_cycle;Signal;HPM_P1;HPM_P2
2022/12/24 00:00:38;;;;;;;;;;;;;;;15.77;56.95;100356.81;7250332;19;154216;-57
2022/12/24 00:03:05;;;;;;;;;;;;;;;15.78;57.05;100360.44;7250685;19;152525;-57
2022/12/24 00:05:32;;;;;;;;;;;;;;;15.78;56.85;100363.22;7248705;19;153545;-57
2022/12/24 00:07:59;;;;;;;;;;;;;;;15.77;57.07;100373.53;7251650;19;154758;-57
2022/12/24 00:10:26;;;;;;;;;;;;;;;15.77;56.97;100367.13;7249129;19;153889;-57
2022/12/24 00:12:52;;;;;;;;;;;;;;;15.77;57.21;100383.84;7251482;19;153322;-57
2022/12/24 00:15:19;;;;;;;;;;;;;;;15.77;57.15;100383.84;7251687;19;152145;-57
2022/12/24 00:17:46;;;;;;;;;;;;;;;15.76;57.24;100391.34;7250974;19;153866;-57
2022/12/24 00:20:13;;;;;;;;;;;;;;;15.76;56.99;100385.78;7259511;19;153137;-57
2022/12/24 00:22:40;;;;;;;;;;;;;;;15.76;57.37;100396.13;7249725;19;156740;-57
2022/12/24 00:25:07;;;;;;;;;;;;;;;15.76;56.88;100408.06;7251601;19;152782;-57
2022/12/24 00:27:34;;;;;;;;;;;;;;;15.76;57.37;100398.91;7252915;19;153240;-57
2022/12/24 00:30:01;;;;;;;;;;;;;;;15.77;57.04;100397.75;7250234;19;155757;-57
2022/12/24 00:32:27;;;;;;;;;;;;;;;15.75;56.94;100400.84;7252327;19;153976;-57
2022/12/24 00:34:54;;;;;;;;;;;;;;;15.76;57.26;100401.69;7251722;19;155273;-57
2022/12/24 00:37:21;;;;;;;;;;;;;;;15.75;57.38;100406.41;7248555;19;152207;-57
2022/12/24 00:39:48;;;;;;;;;;;;;;;15.76;57.33;100415.63;7250668;19;154001;-57
2022/12/24 00:42:15;;;;;;;;;;;;;;;15.75;57.11;100417.56;7256408;19;154656;-57
2022/12/24 00:44:41;;;;;;;;;;;;;;;15.76;57.20;100410.03;7253559;19;154787;-57
2022/12/24 00:47:08;;;;;;;;;;;;;;;15.75;57.11;100412.00;7250642;19;152956;-56
2022/12/24 00:49:37;;;;;;;;;;;;;;;15.76;57.32;100412.81;7248015;19;153729;-57
2022/12/24 00:52:04;;;;;;;;;;;;;;;15.75;57.09;100417.56;7246047;19;155254;-56
2022/12/24 00:54:31;;;;;;;;;;;;;;;15.75;57.14;100423.13;7249742;19;153454;-57
2022/12/24 00:56:57;;;;;;;;;;;;;;;15.75;57.09;100422.31;7246160;19;154259;-57
2022/12/24 00:59:24;;;;;;;;;;;;;;;15.76;57.29;100419.19;7249411;19;153868;-57
2022/12/24 01:01:51;;;;;;;;;;;;;;;15.74;57.16;100432.59;7251334;19;153657;-57
2022/12/24 01:06:55;;;;;;;;;;;;;;;15.73;57.30;100438.44;7248629;19;153871;-57
2022/12/24 01:09:22;;;;;;;;;;;;;;;15.73;56.94;100433.72;7248203;19;153374;-60
2022/12/24 01:11:48;;;;;;;;;;;;;;;15.75;57.03;100447.38;7248941;19;152956;-57
2022/12/24 01:14:15;;;;;;;;;;;;;;;15.73;57.10;100446.81;7250180;19;152495;-57
2022/12/24 01:16:41;;;;;;;;;;;;;;;15.73;57.36;100449.59;7249936;19;153546;-57
2022/12/24 01:19:08;;;;;;;;;;;;;;;15.74;57.22;100446.53;7251120;19;153256;-57
2022/12/24 01:21:35;;;;;;;;;;;;;;;15.73;57.01;100450.44;7247597;19;155386;-57
2022/12/24 01:24:02;;;;;;;;;;;;;;;15.72;57.16;100465.47;7248555;19;154133;-57
2022/12/24 01:26:28;;;;;;;;;;;;;;;15.73;57.11;100457.94;7257776;19;152824;-57
2022/12/24 01:28:56;;;;;;;;;;;;;;;15.72;57.07;100456.28;7248611;19;153858;-56
2022/12/24 01:31:23;;;;;;;;;;;;;;;15.73;57.13;100460.72;7250180;19;152779;-57
2022/12/24 01:33:50;;;;;;;;;;;;;;;15.72;56.86;100461.84;7251145;19;153585;-57
2022/12/24 01:36:16;;;;;;;;;;;;;;;15.72;56.86;100461.84;7245954;19;152355;-57
2022/12/24 01:38:43;;;;;;;;;;;;;;;15.72;57.07;100468.25;7249927;19;153756;-57
2022/12/24 01:43:51;;;;;;;;;;;;;;;15.71;56.83;100469.38;7247496;19;155773;-57
2022/12/24 01:46:19;;;;;;;;;;;;;;;15.72;57.04;100470.19;7255174;19;152466;-56
2022/12/24 01:48:48;;;;;;;;;;;;;;;15.71;57.12;100471.34;7244537;19;152765;-57
2022/12/24 01:51:16;;;;;;;;;;;;;;;15.72;57.31;100479.38;7245757;19;153599;-57
2022/12/24 01:53:46;;;;;;;;;;;;;;;15.73;56.90;100483.84;7247967;19;153456;-56
2022/12/24 01:56:13;;;;;;;;;;;;;;;15.73;56.85;100488.56;7246091;19;153930;-57
2022/12/24 01:58:42;;;;;;;;;;;;;;;15.72;57.23;100489.69;7249766;19;153718;-57
2022/12/24 02:01:08;;;;;;;;;;;;;;;15.71;56.98;100500.03;7248789;19;153756;-57
2022/12/24 02:03:35;;;;;;;;;;;;;;;15.71;56.84;100493.63;7246386;19;153482;-57
2022/12/24 02:06:02;;;;;;;;;;;;;;;15.72;56.82;100507.25;7247740;19;153415;-57
2022/12/24 02:08:38;;;;;;;;;;;;;;;15.71;57.08;100499.19;7250857;19;153529;-57
2022/12/24 02:11:09;;;;;;;;;;;;;;;15.71;57.13;100500.03;7254914;19;153229;-57
2022/12/24 02:13:36;;;;;;;;;;;;;;;15.73;56.82;100508.06;7256453;19;153455;-57
2022/12/24 02:16:10;;;;;;;;;;;;;;;15.71;57.03;100505.59;7255926;19;153232;-57
2022/12/24 02:18:46;;;;;;;;;;;;;;;15.71;56.75;100515.91;7254948;19;153618;-57
2022/12/24 02:21:23;;;;;;;;;;;;;;;15.71;57.09;100505.59;7253750;19;154084;-57
2022/12/24 02:24:01;;;;;;;;;;;;;;;15.71;56.98;100502.81;7251551;19;153532;-56
2022/12/24 02:26:40;;;;;;;;;;;;;;;15.71;57.20;100516.72;7248807;19;154698;-57
2022/12/24 02:29:09;;;;;;;;;;;;;;;15.71;56.90;100515.91;7254730;19;155576;-57
2022/12/24 02:31:39;;;;;;;;;;;;;;;15.71;57.02;100510.31;7257247;19;153986;-57
2022/12/24 02:34:11;;;;;;;;;;;;;;;15.71;57.12;100515.91;7253141;19;153782;-57
2022/12/24 02:36:41;;;;;;;;;;;;;;;15.71;57.19;100504.75;7248527;19;152496;-57
2022/12/24 02:39:11;;;;;;;;;;;;;;;15.71;56.85;100513.13;7256796;19;153978;-56
2022/12/24 02:44:18;;;;;;;;;;;;;;;15.71;56.87;100504.75;7254847;19;153513;-56
2022/12/24 02:46:45;;;;;;;;;;;;;;;15.71;56.74;100513.13;7255818;19;153815;-57
2022/12/24 02:49:12;;;;;;;;;;;;;;;15.70;57.18;100509.50;7254293;19;154775;-57
2022/12/24 02:51:39;;;;;;;;;;;;;;;15.69;56.87;100521.75;7251246;19;154218;-57
2022/12/24 02:54:06;;;;;;;;;;;;;;;15.70;56.85;100520.63;7261642;19;154316;-57
2022/12/24 02:56:44;;;;;;;;;;;;;;;15.70;56.71;100522.59;7252134;19;154186;-57
2022/12/24 02:59:11;;;;;;;;;;;;;;;15.70;56.93;100508.66;7254554;19;154344;-57
2022/12/24 03:01:48;;;;;;;;;;;;;;;15.69;57.14;100512.56;7253811;19;152769;-57
2022/12/24 03:04:38;;;;;;;;;;;;;;;15.70;56.85;100525.38;7253931;19;153995;-57
2022/12/24 03:07:09;;;;;;;;;;;;;;;15.70;56.92;100522.59;7250599;19;154946;-57
2022/12/24 03:09:41;;;;;;;;;;;;;;;15.69;56.81;100529.25;7249736;19;154167;-57
2022/12/24 03:12:14;;;;;;;;;;;;;;;15.70;57.05;100525.38;7221615;19;154198;-57
2022/12/24 03:14:41;;;;;;;;;;;;;;;15.69;56.88;100527.31;7247725;19;153687;-57
2022/12/24 03:17:09;;;;;;;;;;;;;;;15.68;56.58;100524.81;7256230;19;153300;-57
2022/12/24 03:19:36;;;;;;;;;;;;;;;15.68;56.69;100539.56;7249011;19;153490;-57
2022/12/24 03:22:06;;;;;;;;;;;;;;;15.68;56.67;100531.22;7242304;19;157815;-57
2022/12/24 03:24:33;;;;;;;;;;;;;;;15.68;56.67;100524.81;7245800;19;157113;-57
2022/12/24 03:27:01;;;;;;;;;;;;;;;15.67;56.98;100526.75;7249676;19;153381;-57
2022/12/24 03:29:27;;;;;;;;;;;;;;;15.68;56.97;100527.59;7253885;19;153202;-57
2022/12/24 03:31:59;;;;;;;;;;;;;;;15.68;56.88;100530.38;7254231;19;154488;-57
2022/12/24 03:34:26;;;;;;;;;;;;;;;15.68;56.76;100536.78;7250325;19;152557;-57
2022/12/24 03:36:53;;;;;;;;;;;;;;;15.67;57.02;100540.69;7250991;19;154158;-57
2022/12/24 03:39:20;;;;;;;;;;;;;;;15.68;56.74;100534.00;7259928;19;153649;-57
2022/12/24 03:41:47;;;;;;;;;;;;;;;15.68;56.85;100534.00;7249343;19;152954;-57
2022/12/24 03:44:14;;;;;;;;;;;;;;;15.67;56.98;100528.72;7249681;19;153763;-57
2022/12/24 03:46:41;;;;;;;;;;;;;;;15.68;56.65;100544.28;7253808;19;154652;-57
2022/12/24 03:49:08;;;;;;;;;;;;;;;15.68;56.98;100558.22;7256146;19;154239;-57
2022/12/24 03:51:34;;;;;;;;;;;;;;;15.67;56.66;100560.16;7251193;19;154457;-57
2022/12/24 03:54:01;;;;;;;;;;;;;;;15.67;56.95;100560.16;7254527;19;154576;-57
2022/12/24 03:56:28;;;;;;;;;;;;;;;15.66;56.53;100555.75;7254734;19;155959;-57
2022/12/24 03:58:55;;;;;;;;;;;;;;;15.67;56.74;100553.78;7258214;19;153981;-57
2022/12/24 04:01:22;;;;;;;;;;;;;;;15.66;56.72;100538.19;7253194;19;153386;-57
2022/12/24 04:03:49;;;;;;;;;;;;;;;15.67;56.97;100531.53;7250890;19;154300;-57
2022/12/24 04:06:16;;;;;;;;;;;;;;;15.66;56.98;100539.03;7250587;19;154058;-57
2022/12/24 04:08:43;;;;;;;;;;;;;;;15.66;56.83;100541.81;7249574;19;153344;-57
2022/12/24 04:11:11;;;;;;;;;;;;;;;15.66;56.74;100547.38;7251571;19;153584;-57
2022/12/24 04:13:38;;;;;;;;;;;;;;;15.66;56.98;100552.97;7249636;19;153455;-57
2022/12/24 04:16:07;;;;;;;;;;;;;;;15.66;56.73;100560.47;7252031;19;153056;-57
2022/12/24 04:18:34;;;;;;;;;;;;;;;15.65;56.56;100554.06;7250624;19;152836;-57
2022/12/24 04:21:01;;;;;;;;;;;;;;;15.66;56.71;100560.47;7258001;19;153728;-57
2022/12/24 04:23:30;;;;;;;;;;;;;;;15.65;56.66;100572.72;7247701;19;153485;-57
2022/12/24 04:25:58;;;;;;;;;;;;;;;15.66;56.85;100579.97;7251019;19;154369;-57
2022/12/24 04:28:25;;;;;;;;;;;;;;;15.65;56.65;100586.66;7250378;19;154065;-57
2022/12/24 04:30:56;;;;;;;;;;;;;;;15.65;56.80;100595.00;7251104;19;154592;-57
2022/12/24 04:33:23;;;;;;;;;;;;;;;15.64;56.57;100590.53;7245723;19;154066;-57
2022/12/24 04:35:50;;;;;;;;;;;;;;;15.64;56.60;100590.53;7251319;19;153159;-57
2022/12/24 04:38:17;;;;;;;;;;;;;;;15.65;56.64;100600.56;7250491;19;155078;-57
2022/12/24 04:40:44;;;;;;;;;;;;;;;15.64;56.63;100596.94;7250501;19;154290;-57
2022/12/24 04:43:11;;;;;;;;;;;;;;;15.65;56.61;100597.78;7257450;19;153203;-57
2022/12/24 04:45:37;;;;;;;;;;;;;;;15.66;56.41;100599.47;7251179;19;154291;-57
2022/12/24 04:48:05;;;;;;;;;;;;;;;15.64;56.82;100601.69;7250697;19;154381;-57
2022/12/24 04:50:31;;;;;;;;;;;;;;;15.63;56.83;100598.06;7250558;19;153399;-57
2022/12/24 04:52:58;;;;;;;;;;;;;;;15.63;56.43;100611.97;7252165;19;153947;-57
2022/12/24 04:55:25;;;;;;;;;;;;;;;15.64;56.60;100598.91;7253019;19;153371;-57
2022/12/24 04:57:52;;;;;;;;;;;;;;;15.64;56.38;100612.81;7250236;19;155606;-57
2022/12/24 05:00:19;;;;;;;;;;;;;;;15.64;56.70;100615.59;7250986;19;152892;-57
2022/12/24 05:02:46;;;;;;;;;;;;;;;15.62;56.82;100615.91;7251037;19;153685;-57
2022/12/24 05:05:13;;;;;;;;;;;;;;;15.63;56.35;100620.34;7255675;19;154192;-57
2022/12/24 05:07:40;;;;;;;;;;;;;;;15.63;56.52;100620.34;7251024;19;155934;-57
2022/12/24 05:10:07;;;;;;;;;;;;;;;15.62;56.51;100627.06;7246077;19;153587;-57
2022/12/24 05:12:34;;;;;;;;;;;;;;;15.62;56.58;100627.06;7250925;19;153389;-57
2022/12/24 05:15:01;;;;;;;;;;;;;;;15.63;56.69;100627.84;7250577;19;154206;-58
2022/12/24 05:17:28;;;;;;;;;;;;;;;15.63;56.60;100631.47;7248481;19;153602;-57
2022/12/24 05:19:54;;;;;;;;;;;;;;;15.63;56.56;100630.63;7249296;19;153518;-57
2022/12/24 05:27:21;;;;;;;;;;;;;;;15.62;56.29;100638.19;7258372;19;153273;-57
2022/12/24 05:29:48;;;;;;;;;;;;;;;15.62;56.40;100642.91;7249994;19;153564;-57
2022/12/24 05:32:15;;;;;;;;;;;;;;;15.62;56.67;100643.75;7249944;19;154404;-57
2022/12/24 05:34:42;;;;;;;;;;;;;;;15.61;56.65;100641.25;7250511;19;153665;-57
2022/12/24 05:37:09;;;;;;;;;;;;;;;15.61;56.45;100644.88;7245679;19;154082;-57
2022/12/24 05:39:35;;;;;;;;;;;;;;;15.60;56.22;100640.41;7248625;19;152434;-57
2022/12/24 05:42:02;;;;;;;;;;;;;;;15.61;56.28;100649.59;7249543;19;153857;-57
2022/12/24 05:44:29;;;;;;;;;;;;;;;15.62;56.58;100648.50;7251829;19;154017;-57
2022/12/24 05:46:56;;;;;;;;;;;;;;;15.61;56.37;100652.38;7265476;19;153227;-57
2022/12/24 05:49:23;;;;;;;;;;;;;;;15.60;56.61;100653.50;7254073;19;153424;-57
2022/12/24 05:51:50;;;;;;;;;;;;;;;15.60;56.38;100645.13;7251207;19;153457;-57
2022/12/24 05:54:17;;;;;;;;;;;;;;;15.60;56.14;100656.28;7257335;19;154556;-57
2022/12/24 05:56:43;;;;;;;;;;;;;;;15.59;56.32;100663.78;7256434;19;153527;-57
2022/12/24 05:59:10;;;;;;;;;;;;;;;15.60;56.58;100672.97;7258637;19;154489;-57
2022/12/24 06:01:37;;;;;;;;;;;;;;;15.59;56.28;100688.84;7254851;19;153372;-57
2022/12/24 06:04:04;;;;;;;;;;;;;;;15.58;56.10;100688.00;7253857;19;153722;-57
2022/12/24 06:06:32;;;;;;;;;;;;;;;15.59;56.55;100691.63;7254359;19;153212;-57
2022/12/24 06:08:58;;;;;;;;;;;;;;;15.58;56.29;100690.78;7260476;19;153077;-57
2022/12/24 06:11:26;;;;;;;;;;;;;;;15.59;56.29;100691.63;7256499;19;154462;-57
2022/12/24 06:13:53;;;;;;;;;;;;;;;15.58;56.26;100684.38;7254556;19;152540;-57
2022/12/24 06:16:21;;;;;;;;;;;;;;;15.58;56.13;100695.53;7253285;19;153998;-57
2022/12/24 06:18:48;;;;;;;;;;;;;;;15.58;56.42;100688.00;7255400;19;153554;-57
2022/12/24 06:21:16;;;;;;;;;;;;;;;15.58;56.47;100699.16;7250450;19;154774;-57
2022/12/24 06:23:43;;;;;;;;;;;;;;;15.57;56.47;100697.50;7253011;19;156595;-57
2022/12/24 06:26:11;;;;;;;;;;;;;;;15.59;56.15;100691.63;7254838;19;153562;-57
2022/12/24 06:28:38;;;;;;;;;;;;;;;15.59;56.28;100686.06;7256764;19;153286;-57
2022/12/24 06:31:06;;;;;;;;;;;;;;;15.58;56.15;100696.38;7261706;19;154027;-57
2022/12/24 06:33:33;;;;;;;;;;;;;;;15.58;56.26;100701.09;7253920;19;154846;-57
2022/12/24 06:36:00;;;;;;;;;;;;;;;15.60;55.98;100706.41;7251353;19;153918;-56
2022/12/24 06:38:29;;;;;;;;;;;;;;;15.57;56.20;100703.06;7252549;19;152937;-57
2022/12/24 06:40:56;;;;;;;;;;;;;;;15.57;55.96;100708.66;7253793;19;152096;-57
2022/12/24 06:43:23;;;;;;;;;;;;;;;15.58;56.37;100706.66;7251977;19;154190;-57
2022/12/24 06:45:50;;;;;;;;;;;;;;;15.57;56.21;100705.84;7255846;19;153621;-57
2022/12/24 06:48:16;;;;;;;;;;;;;;;15.56;56.16;100704.19;7253296;19;155016;-57
2022/12/24 06:50:43;;;;;;;;;;;;;;;15.57;55.94;100718.94;7252552;19;155111;-57
2022/12/24 06:53:10;;;;;;;;;;;;;;;15.56;55.91;100720.06;7256824;19;153666;-57
2022/12/24 06:55:37;;;;;;;;;;;;;;;15.55;56.14;100724.78;7250631;19;153327;-57
2022/12/24 06:58:04;;;;;;;;;;;;;;;15.56;55.93;100726.47;7253236;19;154421;-57
2022/12/24 07:00:31;;;;;;;;;;;;;;;15.56;56.30;100745.94;7254979;19;152259;-57
2022/12/24 07:02:58;;;;;;;;;;;;;;;15.56;56.12;100740.38;7251248;19;153786;-57
2022/12/24 07:05:25;;;;;;;;;;;;;;;15.57;55.86;100752.34;7249619;19;153752;-56
2022/12/24 07:07:52;;;;;;;;;;;;;;;15.56;56.29;100757.09;7250827;19;155323;-56
2022/12/24 07:10:19;;;;;;;;;;;;;;;15.55;56.01;100763.75;7253721;19;154321;-57
2022/12/24 07:12:47;;;;;;;;;;;;;;;15.56;56.16;100761.81;7254124;19;152246;-56
2022/12/24 07:15:15;;;;;;;;;;;;;;;15.55;55.86;100758.19;7257787;19;153063;-57
2022/12/24 07:17:42;;;;;;;;;;;;;;;15.55;56.16;100765.72;7255099;19;153368;-57
2022/12/24 07:20:11;;;;;;;;;;;;;;;15.55;56.13;100768.50;7251792;19;153085;-56
2022/12/24 07:22:37;;;;;;;;;;;;;;;15.55;56.04;100760.97;7250230;19;155952;-57
2022/12/24 07:25:05;;;;;;;;;;;;;;;15.55;55.84;100768.50;7250200;19;152841;-56
2022/12/24 07:27:31;;;;;;;;;;;;;;;15.54;56.19;100767.66;7254530;19;155286;-57
2022/12/24 07:29:58;;;;;;;;;;;;;;;15.55;56.05;100774.91;7251049;19;155437;-57
2022/12/24 07:32:25;;;;;;;;;;;;;;;15.56;56.15;100767.38;7253637;19;153169;-57
2022/12/24 07:34:52;;;;;;;;;;;;;;;15.55;55.92;100771.28;7253682;19;154905;-57
2022/12/24 07:37:19;;;;;;;;;;;;;;;15.55;55.90;100780.47;7259994;19;154405;-57
2022/12/24 07:39:46;;;;;;;;;;;;;;;15.55;55.82;100786.03;7253484;19;154173;-57
2022/12/24 07:42:12;;;;;;;;;;;;;;;15.54;55.90;100789.94;7249786;19;154284;-57
2022/12/24 07:44:39;;;;;;;;;;;;;;;15.54;55.91;100787.16;7251932;19;153225;-57
2022/12/24 07:47:06;;;;;;;;;;;;;;;15.54;55.85;100781.56;7253253;19;153393;-57
2022/12/24 07:49:35;;;;;;;;;;;;;;;15.55;55.72;100794.38;7249821;19;154582;-57
2022/12/24 07:52:02;;;;;;;;;;;;;;;15.54;56.13;100801.06;7250441;19;153244;-56
2022/12/24 07:54:29;;;;;;;;;;;;;;;15.54;55.81;100797.44;7254242;19;154998;-57
2022/12/24 07:56:56;;;;;;;;;;;;;;;15.53;56.11;100793.84;7259929;19;153438;-57
2022/12/24 07:59:23;;;;;;;;;;;;;;;15.53;56.11;100804.16;7252385;19;153597;-57
2022/12/24 08:01:49;;;;;;;;;;;;;;;15.53;55.66;100805.00;7252422;19;154156;-57
2022/12/24 08:04:17;;;;;;;;;;;;;;;15.53;55.87;100805.00;7252712;19;153870;-57
2022/12/24 08:06:44;;;;;;;;;;;;;;;15.54;56.03;100791.88;7248082;19;154181;-57
2022/12/24 08:09:13;;;;;;;;;;;;;;;15.52;55.97;100800.53;7246961;19;153766;-57
2022/12/24 08:11:39;;;;;;;;;;;;;;;15.51;55.64;100812.78;7251214;19;152610;-57
2022/12/24 08:14:15;;;;;;;;;;;;;;;15.52;55.87;100814.44;7251943;19;154176;-57
2022/12/24 08:16:42;;;;;;;;;;;;;;;15.53;56.03;100820.84;7251517;19;154377;-57
2022/12/24 08:19:09;;;;;;;;;;;;;;;15.52;55.86;100811.66;7260199;19;153950;-57
2022/12/24 08:21:36;;;;;;;;;;;;;;;15.52;56.10;100814.44;7246874;19;155415;-57
2022/12/24 08:24:03;;;;;;;;;;;;;;;15.52;55.60;100814.44;7251065;19;154084;-57
2022/12/24 08:26:29;;;;;;;;;;;;;;;15.51;55.85;100809.97;7252470;19;154159;-57
2022/12/24 08:28:56;;;;;;;;;;;;;;;15.52;55.75;100820.00;7251599;19;154223;-57
2022/12/24 08:31:23;;;;;;;;;;;;;;;15.52;55.70;100820.00;7250670;19;153882;-57
2022/12/24 08:33:50;;;;;;;;;;;;;;;15.52;55.95;100822.81;7253409;19;154536;-57
2022/12/24 08:36:17;;;;;;;;;;;;;;;15.52;55.94;100825.59;7247030;19;153988;-58
2022/12/24 08:38:44;;;;;;;;;;;;;;;15.52;55.77;100825.59;7252846;19;153992;-57
2022/12/24 08:41:11;;;;;;;;;;;;;;;15.52;55.84;100835.88;7255878;19;153220;-57
2022/12/24 08:43:38;;;;;;;;;;;;;;;15.52;55.95;100844.22;7252645;19;154663;-57
2022/12/24 08:46:05;;;;;;;;;;;;;;;15.51;55.87;100853.69;7248454;19;153329;-57
2022/12/24 08:48:32;;;;;;;;;;;;;;;15.50;55.54;100861.22;7251445;19;155025;-57
2022/12/24 08:50:59;;;;;;;;;;;;;;;15.51;55.83;100859.25;7249473;19;153381;-57
2022/12/24 08:53:26;;;;;;;;;;;;;;;15.51;55.50;100854.53;7251917;19;154792;-57
2022/12/24 08:56:00;;;;;;;;;;;;;;;15.51;55.78;100845.34;7246570;19;155521;-57
2022/12/24 08:58:26;;;;;;;;;;;;;;;15.50;55.54;100847.28;7248475;19;153977;-57
2022/12/24 09:00:53;;;;;;;;;;;;;;;15.52;55.64;100847.03;7252031;19;153651;-56
2022/12/24 09:03:20;;;;;;;;;;;;;;;15.50;55.70;100841.72;7257857;19;155332;-56
2022/12/24 09:05:53;;;;;;;;;;;;;;;15.51;55.58;100839.78;7246647;19;154426;-57
2022/12/24 09:08:20;;;;;;;;;;;;;;;15.51;55.64;100845.34;7249222;19;154394;-57
2022/12/24 09:10:47;;;;;;;;;;;;;;;15.50;55.36;100838.94;7249114;19;153735;-57
2022/12/24 09:13:13;;;;;;;;;;;;;;;15.50;55.70;100847.28;7249691;19;153850;-57
2022/12/24 09:15:40;;;;;;;;;;;;;;;15.49;55.47;100851.13;7250162;19;156066;-57
2022/12/24 09:18:07;;;;;;;;;;;;;;;15.50;55.55;100847.28;7248302;19;152347;-57
2022/12/24 09:20:34;;;;;;;;;;;;;;;15.50;55.57;100847.28;7248866;19;153303;-57
2022/12/24 09:23:01;;;;;;;;;;;;;;;15.50;55.67;100855.63;7246191;19;153921;-57
2022/12/24 09:25:28;;;;;;;;;;;;;;;15.48;55.51;100838.38;7256536;19;153784;-57
2022/12/24 09:27:55;;;;;;;;;;;;;;;15.50;55.52;100833.38;7248116;19;153795;-57
2022/12/24 09:30:22;;;;;;;;;;;;;;;15.51;55.53;100839.78;7250453;19;153923;-56
2022/12/24 09:32:50;;;;;;;;;;;;;;;15.49;55.62;100840.00;7248547;19;154120;-57
2022/12/24 09:35:17;;;;;;;;;;;;;;;15.49;55.52;100845.56;7246681;19;155316;-57
2022/12/24 09:37:43;;;;;;;;;;;;;;;15.50;55.48;100843.63;7248900;19;153005;-56
2022/12/24 09:40:20;;;;;;;;;;;;;;;15.48;55.57;100838.38;7248749;19;153493;-57
2022/12/24 09:42:47;;;;;;;;;;;;;;;15.50;55.76;100829.72;7247794;19;156098;-56
2022/12/24 09:45:15;;;;;;;;;;;;;;;15.48;55.73;100843.94;7245263;19;153367;-57
2022/12/24 09:47:45;;;;;;;;;;;;;;;15.49;55.38;100851.13;7256518;19;153340;-57
2022/12/24 09:50:15;;;;;;;;;;;;;;;15.48;55.54;100849.50;7248571;19;153900;-56
2022/12/24 09:52:44;;;;;;;;;;;;;;;15.47;55.34;100858.13;7249091;19;153132;-57
2022/12/24 09:55:11;;;;;;;;;;;;;;;15.49;55.42;100853.13;7246640;19;154225;-57
2022/12/24 09:57:40;;;;;;;;;;;;;;;15.49;55.40;100878.19;7249559;19;152269;-57
2022/12/24 10:00:18;;;;;;;;;;;;;;;15.48;55.34;100868.97;7248780;19;153272;-57
2022/12/24 10:02:45;;;;;;;;;;;;;;;15.48;55.74;100877.34;7247165;19;153703;-57
2022/12/24 10:05:14;;;;;;;;;;;;;;;15.48;55.34;100873.72;7246987;19;152890;-56
2022/12/24 10:07:45;;;;;;;;;;;;;;;15.47;55.64;100875.66;7253555;19;154166;-56
2022/12/24 10:10:15;;;;;;;;;;;;;;;15.47;55.66;100878.44;7246944;19;153646;-57
2022/12/24 10:12:42;;;;;;;;;;;;;;;15.47;55.56;100878.44;7248436;19;154530;-57
2022/12/24 10:15:18;;;;;;;;;;;;;;;15.48;55.55;100868.97;7247618;19;153511;-57
2022/12/24 10:17:52;;;;;;;;;;;;;;;15.48;55.70;100874.56;7250120;19;153183;-56
2022/12/24 10:20:22;;;;;;;;;;;;;;;15.47;55.48;100872.88;7248345;19;154896;-57
2022/12/24 10:22:52;;;;;;;;;;;;;;;15.49;55.70;100884.56;7249231;19;154124;-57
2022/12/24 10:25:23;;;;;;;;;;;;;;;15.49;55.46;100878.97;7248193;19;153358;-57
2022/12/24 10:27:53;;;;;;;;;;;;;;;15.49;55.35;100878.97;7249467;19;154239;-57
2022/12/24 10:30:21;;;;;;;;;;;;;;;15.49;55.70;100881.78;7253031;19;153378;-57
2022/12/24 10:32:50;;;;;;;;;;;;;;;15.49;55.41;100878.19;7251998;19;153639;-57
2022/12/24 10:35:21;;;;;;;;;;;;;;;15.49;55.62;100876.19;7253076;19;154425;-57
2022/12/24 10:37:49;;;;;;;;;;;;;;;15.50;55.51;100877.91;7252083;19;154772;-57
2022/12/24 10:40:24;;;;;;;;;;;;;;;15.49;55.57;100876.19;7252214;19;154364;-56
2022/12/24 10:42:51;;;;;;;;;;;;;;;15.48;55.64;100882.91;7252883;19;152346;-57
2022/12/24 10:45:20;;;;;;;;;;;;;;;15.49;55.38;100887.34;7251617;19;153798;-56
2022/12/24 10:47:49;;;;;;;;;;;;;;;15.48;55.78;100874.56;7258376;19;153908;-57
2022/12/24 10:50:23;;;;;;;;;;;;;;;15.49;55.79;100881.78;7251479;19;153350;-57
2022/12/24 10:52:54;;;;;;;;;;;;;;;15.48;55.58;100877.34;7262898;19;152919;-57
2022/12/24 10:55:23;;;;;;;;;;;;;;;15.50;55.51;100882.59;7252752;19;153625;-56
2022/12/24 10:57:57;;;;;;;;;;;;;;;15.50;55.60;100889.06;7253044;19;153489;-57
2022/12/24 11:00:23;;;;;;;;;;;;;;;15.49;55.62;100876.19;7253433;19;154076;-56
2022/12/24 11:03:03;;;;;;;;;;;;;;;15.49;55.44;100873.41;7253603;19;154254;-56
2022/12/24 11:05:33;;;;;;;;;;;;;;;15.50;55.61;100868.69;7253411;19;154380;-56
2022/12/24 11:08:02;;;;;;;;;;;;;;;15.50;55.38;100866.78;7250380;19;154030;-57
2022/12/24 11:10:30;;;;;;;;;;;;;;;15.50;55.46;100872.34;7254843;19;155182;-57
2022/12/24 11:12:57;;;;;;;;;;;;;;;15.50;55.36;100882.59;7253885;19;155625;-56
2022/12/24 11:15:44;;;;;;;;;;;;;;;15.50;55.56;100883.47;7261119;19;155617;-56
2022/12/24 11:18:13;;;;;;;;;;;;;;;15.50;55.54;100875.13;7253824;19;153024;-57
2022/12/24 11:20:40;;;;;;;;;;;;;;;15.50;55.26;100880.69;7250162;19;153589;-56
2022/12/24 11:23:14;;;;;;;;;;;;;;;15.50;55.67;100883.47;7250725;19;153829;-56
2022/12/24 11:25:46;;;;;;;;;;;;;;;15.50;55.65;100890.97;7252039;19;153964;-56
2022/12/24 11:28:16;;;;;;;;;;;;;;;15.51;55.26;100895.47;7251120;19;152927;-56
2022/12/24 11:30:54;;;;;;;;;;;;;;;15.50;55.40;100900.19;7252720;19;154074;-57
2022/12/24 11:33:21;;;;;;;;;;;;;;;15.50;55.70;100897.41;7252758;19;153590;-57
2022/12/24 11:35:50;;;;;;;;;;;;;;;15.50;55.69;100894.63;7252352;19;153500;-57
2022/12/24 11:38:20;;;;;;;;;;;;;;;15.50;55.51;100894.63;7260759;19;153834;-57
2022/12/24 11:40:49;;;;;;;;;;;;;;;15.51;55.67;100890.72;7252073;19;152691;-56
2022/12/24 11:43:19;;;;;;;;;;;;;;;15.51;55.39;100896.28;7248929;19;154570;-57
2022/12/24 11:45:49;;;;;;;;;;;;;;;15.51;55.63;100896.28;7254407;19;153461;-57
2022/12/24 11:48:19;;;;;;;;;;;;;;;15.51;55.37;100890.72;7252995;19;154910;-56
2022/12/24 11:50:54;;;;;;;;;;;;;;;15.52;55.65;100892.41;7250634;19;153302;-56
2022/12/24 11:53:24;;;;;;;;;;;;;;;15.52;55.62;100897.13;7251876;19;154330;-56
2022/12/24 11:55:54;;;;;;;;;;;;;;;15.51;55.22;100895.47;7254480;19;155222;-57
2022/12/24 11:58:22;;;;;;;;;;;;;;;15.53;55.40;100898.81;7249456;19;153979;-57
2022/12/24 12:00:50;;;;;;;;;;;;;;;15.53;55.32;100887.69;7259851;19;152981;-57
2022/12/24 12:03:20;;;;;;;;;;;;;;;15.53;55.38;100887.69;7251392;19;153404;-57
2022/12/24 12:05:47;;;;;;;;;;;;;;;15.52;55.47;100889.63;7251704;19;153815;-56
2022/12/24 12:08:17;;;;;;;;;;;;;;;15.52;55.60;100886.00;7250122;19;155094;-56
2022/12/24 12:10:45;;;;;;;;;;;;;;;15.51;55.29;100887.09;7251708;19;154244;-56
2022/12/24 12:13:13;;;;;;;;;;;;;;;15.52;55.59;100884.06;7248469;19;152025;-57
2022/12/24 12:15:45;;;;;;;;;;;;;;;15.52;55.29;100892.41;7251902;19;154676;-56
2022/12/24 12:18:15;;;;;;;;;;;;;;;15.52;55.50;100881.28;7249854;19;153156;-57
2022/12/24 12:20:45;;;;;;;;;;;;;;;15.53;55.37;100885.72;7259946;19;152794;-56
2022/12/24 12:23:14;;;;;;;;;;;;;;;15.52;55.67;100897.13;7249133;19;156274;-57
2022/12/24 12:25:44;;;;;;;;;;;;;;;15.52;55.49;100897.97;7250701;19;153439;-57
2022/12/24 12:28:19;;;;;;;;;;;;;;;15.52;55.74;100891.56;7251684;19;153350;-57
2022/12/24 12:30:53;;;;;;;;;;;;;;;15.52;55.60;100880.44;7251389;19;153881;-57
2022/12/24 12:33:25;;;;;;;;;;;;;;;15.53;55.68;100874.59;7250010;19;153220;-57
2022/12/24 12:35:53;;;;;;;;;;;;;;;15.54;55.59;100872.63;7246880;19;154055;-57
2022/12/24 12:38:22;;;;;;;;;;;;;;;15.53;55.65;100866.25;7250678;19;154863;-57
2022/12/24 12:40:52;;;;;;;;;;;;;;;15.53;55.71;100859.84;7250779;19;153311;-57
2022/12/24 12:43:20;;;;;;;;;;;;;;;15.53;55.51;100865.41;7258002;19;153815;-57
2022/12/24 12:45:50;;;;;;;;;;;;;;;15.52;55.39;100869.28;7252582;19;154304;-57